Time;durP1;ratioP1;P1;durP2;ratioP2;P2;SDS_P1;SDS_P2;PMS_P1;PMS_P2;Temp;Humidity;BMP_temperature;BMP_pressure;BME280_temperature;BME280_humidity;BME280_pressure;Samples;Min_cycle;Max_cycle;Signal;HPM_P1;HPM_P2
2022/02/02 00:00:44;;;;;;;25.45;7.72;;;1.10;99.90;;;;;;4980054;28;20027;-79
2022/02/02 00:03:11;;;;;;;18.77;6.82;;;1.20;99.90;;;;;;4982136;28;20019;-79
2022/02/02 00:08:16;;;;;;;17.15;7.68;;;1.30;99.90;;;;;;4982431;28;20024;-79
2022/02/02 00:11:17;;;;;;;11.05;5.88;;;1.30;99.90;;;;;;4981861;28;20026;-80
2022/02/02 00:18:53;;;;;;;16.15;5.88;;;1.30;99.90;;;;;;4979828;28;20027;-79
2022/02/02 00:21:27;;;;;;;18.00;6.20;;;1.30;99.90;;;;;;4963726;29;20016;-79
2022/02/02 00:23:59;;;;;;;15.63;6.95;;;1.40;99.90;;;;;;4963572;28;20004;-79
2022/02/02 00:26:30;;;;;;;13.02;6.43;;;1.40;99.90;;;;;;4964400;29;20031;-79
2022/02/02 00:29:03;;;;;;;15.05;7.22;;;1.30;99.90;;;;;;4980374;28;20004;-81
2022/02/02 00:31:37;;;;;;;13.88;6.97;;;1.30;99.90;;;;;;4961868;29;20012;-79
2022/02/02 00:34:07;;;;;;;22.55;9.10;;;1.30;99.90;;;;;;4961123;29;20079;-79
2022/02/02 00:36:50;;;;;;;17.13;8.40;;;1.30;99.90;;;;;;4961139;29;20108;-78
2022/02/02 00:39:16;;;;;;;22.77;8.40;;;1.30;99.90;;;;;;4945135;29;20019;-79
2022/02/02 00:41:42;;;;;;;20.80;10.10;;;1.30;99.90;;;;;;4944488;29;20094;-79
2022/02/02 00:44:09;;;;;;;;;;;1.30;99.90;;;;;;4944360;29;20046;-79
2022/02/02 00:46:35;;;;;;;27.98;11.35;;;1.20;99.90;;;;;;4944244;29;19910;-78
2022/02/02 00:49:01;;;;;;;22.95;11.05;;;1.20;99.90;;;;;;4960028;29;20011;-80
2022/02/02 00:51:37;;;;;;;27.25;12.90;;;1.10;99.90;;;;;;4944232;29;20091;-79
2022/02/02 00:54:04;;;;;;;25.20;12.45;;;1.10;99.90;;;;;;4943434;29;20015;-78
2022/02/02 00:56:30;;;;;;;33.25;12.82;;;1.10;99.90;;;;;;4943407;29;20044;-78
2022/02/02 00:58:56;;;;;;;27.73;12.63;;;1.00;99.90;;;;;;4960174;29;20031;-79
2022/02/02 01:01:22;;;;;;;;;;;1.00;99.90;;;;;;4959377;29;20031;-79
2022/02/02 01:03:48;;;;;;;29.13;11.88;;;1.00;99.90;;;;;;4958623;29;19941;-79
2022/02/02 01:06:18;;;;;;;23.10;12.80;;;1.00;99.90;;;;;;4941965;29;20039;-79
2022/02/02 01:17:15;;;;;;;23.90;12.25;;;0.90;99.90;;;;;;4959632;29;20428;-79
2022/02/02 01:22:03;;;;;;;22.38;10.95;;;1.00;99.90;;;;;;4959348;29;20075;-79
2022/02/02 01:32:35;;;;;;;15.80;7.88;;;0.90;99.90;;;;;;5389003;23;20050;-80
2022/02/02 01:35:01;;;;;;;;;;;0.90;99.90;;;;;;4995549;28;20019;-79
2022/02/02 01:37:28;;;;;;;12.02;6.88;;;1.00;99.90;;;;;;4982357;28;19894;-79
2022/02/02 01:40:04;;;;;;;15.52;7.68;;;1.10;99.90;;;;;;4981615;28;20026;-79
2022/02/02 01:42:38;;;;;;;15.85;8.32;;;1.10;99.90;;;;;;4998615;28;20022;-80
2022/02/02 01:45:13;;;;;;;17.20;7.15;;;1.10;99.90;;;;;;4999242;28;20007;-80
2022/02/02 01:47:51;;;;;;;17.23;8.82;;;1.10;99.90;;;;;;4999428;28;20076;-79
2022/02/02 01:50:23;;;;;;;15.27;8.15;;;1.00;99.90;;;;;;4997830;28;20008;-79
2022/02/02 01:55:38;;;;;;;14.13;7.88;;;1.00;99.90;;;;;;4998291;28;20038;-78
2022/02/02 01:58:37;;;;;;;15.27;8.48;;;1.00;99.90;;;;;;4996727;28;20003;-79
2022/02/02 02:01:04;;;;;;;15.10;8.68;;;1.10;99.90;;;;;;4998286;28;20028;-79
2022/02/02 02:03:32;;;;;;;16.48;7.93;;;1.00;99.90;;;;;;4999072;28;20074;-79
2022/02/02 02:05:58;;;;;;;15.07;7.95;;;1.00;99.90;;;;;;4978887;28;20112;-79
2022/02/02 02:08:24;;;;;;;;;;;1.00;99.90;;;;;;4992628;28;20038;-79
2022/02/02 02:10:50;;;;;;;12.82;7.05;;;1.10;99.90;;;;;;4974987;28;19912;-79
2022/02/02 02:15:43;;;;;;;12.45;6.70;;;1.00;99.90;;;;;;4995220;28;19890;-78
2022/02/02 02:18:10;;;;;;;11.45;6.80;;;1.10;99.90;;;;;;4995406;28;20014;-79
2022/02/02 02:20:37;;;;;;;17.40;6.90;;;1.10;99.90;;;;;;4982681;28;20099;-79
2022/02/02 02:23:04;;;;;;;14.32;7.43;;;1.10;99.90;;;;;;4995418;28;20031;-79
2022/02/02 02:25:31;;;;;;;11.52;6.85;;;1.10;99.90;;;;;;4994949;28;20033;-79
2022/02/02 02:28:18;;;;;;;13.77;7.95;;;1.00;99.90;;;;;;4977631;28;20019;-78
2022/02/02 02:30:50;;;;;;;;;;;1.10;99.90;;;;;;4973673;29;20055;-78
2022/02/02 02:33:36;;;;;;;12.20;7.47;;;1.00;99.90;;;;;;4950115;29;19922;-78
2022/02/02 02:39:18;;;;;;;13.25;7.75;;;1.00;99.90;;;;;;4977966;28;20030;-78
2022/02/02 02:58:06;;;;;;;10.52;6.57;;;1.10;99.90;;;;;;4982791;28;20034;-78
2022/02/02 03:00:52;;;;;;;13.50;7.72;;;1.10;99.90;;;;;;4966557;28;20038;-79
2022/02/02 03:14:05;;;;;;;13.82;7.55;;;1.10;99.90;;;;;;4982914;28;20029;-79
2022/02/02 03:30:56;;;;;;;12.45;6.90;;;1.10;99.90;;;;;;4981242;28;20039;-79
2022/02/02 03:50:11;;;;;;;14.15;8.30;;;1.00;99.90;;;;;;4981896;28;20072;-80
2022/02/02 03:58:19;;;;;;;11.18;7.50;;;1.10;99.90;;;;;;4958779;29;20015;-79
2022/02/02 04:04:13;;;;;;;14.68;7.32;;;1.10;99.90;;;;;;4950574;28;20023;-79
2022/02/02 04:06:29;;;;;;;14.27;7.50;;;1.10;99.90;;;;;;4980141;28;20016;-80
2022/02/02 04:08:56;;;;;;;14.18;7.30;;;1.20;99.90;;;;;;4965133;28;20018;-80
2022/02/02 04:11:32;;;;;;;9.40;6.43;;;1.10;99.90;;;;;;4980960;28;20099;-75
2022/02/02 04:53:25;;;;;;;16.50;9.10;;;1.40;99.90;;;;;;4981277;28;20074;-79
2022/02/02 04:55:41;;;;;;;13.85;8.60;;;1.30;99.90;;;;;;4981337;28;20011;-81
2022/02/02 05:22:30;;;;;;;12.13;7.80;;;1.40;99.90;;;;;;4929395;29;20076;-81
2022/02/02 15:27:50;;;;;;;9.25;3.00;;;6.40;99.90;;;;;;4963973;29;20023;-79
2022/02/02 15:30:33;;;;;;;6.97;2.85;;;6.20;99.90;;;;;;4963107;29;20019;-79
2022/02/02 15:33:03;;;;;;;10.32;3.45;;;6.00;99.90;;;;;;4964170;29;20067;-78
2022/02/02 15:35:31;;;;;;;15.88;5.68;;;6.00;99.90;;;;;;4964126;29;20012;-79
2022/02/02 15:38:03;;;;;;;4.82;1.35;;;5.80;99.90;;;;;;4947418;29;20020;-80
2022/02/02 15:40:36;;;;;;;7.60;2.88;;;5.80;99.90;;;;;;4963562;29;20004;-80
2022/02/02 16:04:38;;;;;;;138.60;48.67;;;5.20;99.90;;;;;;4960430;29;20042;-80
2022/02/02 16:07:08;;;;;;;69.70;27.38;;;5.30;99.90;;;;;;4962931;29;20079;-79
2022/02/02 16:09:54;;;;;;;113.53;46.92;;;5.30;99.90;;;;;;4963428;29;20079;-80
2022/02/02 16:12:31;;;;;;;117.50;50.60;;;5.20;99.90;;;;;;4962534;28;20023;-80
2022/02/02 16:15:21;;;;;;;98.95;43.42;;;5.10;99.90;;;;;;4961152;29;20032;-81
2022/02/02 16:37:41;;;;;;;5.43;1.52;;;4.90;99.90;;;;;;6025888;23;20879;31
2022/02/02 16:40:20;;;;;;;7.43;2.90;;;5.00;99.90;;;;;;4938491;29;20032;-80
2022/02/02 16:45:31;;;;;;;3.47;0.65;;;4.90;99.90;;;;;;4940622;29;20055;-79
2022/02/02 16:47:57;;;;;;;;;;;4.80;99.90;;;;;;4938284;29;20028;-80
2022/02/02 16:50:27;;;;;;;8.07;1.05;;;4.80;99.90;;;;;;4917099;29;19896;-80
2022/02/02 16:52:57;;;;;;;4.85;0.90;;;4.70;99.90;;;;;;4935856;29;20048;-79
2022/02/02 16:58:22;;;;;;;6.05;1.33;;;4.50;99.90;;;;;;4943407;29;20020;-84
2022/02/02 17:32:44;;;;;;;8.35;2.58;;;4.20;99.90;;;;;;4961350;29;20024;-81
2022/02/02 17:38:14;;;;;;;7.25;1.92;;;4.30;99.90;;;;;;4961926;29;20072;-79
2022/02/02 18:18:53;;;;;;;5.20;1.08;;;3.70;99.90;;;;;;4962589;29;20083;-80
2022/02/02 18:21:20;;;;;;;2.80;1.13;;;3.70;99.90;;;;;;4964134;29;20027;-80
2022/02/02 18:47:43;;;;;;;7.40;1.30;;;3.80;99.90;;;;;;4957356;29;20019;-80
2022/02/02 18:50:21;;;;;;;2.60;0.82;;;3.90;99.90;;;;;;4936489;29;20048;-80
2022/02/02 19:00:38;;;;;;;;;;;3.80;99.90;;;;;;4959792;29;20040;-80
2022/02/02 20:14:21;;;;;;;5.20;1.10;;;3.20;99.90;;;;;;6021873;23;20142;31
2022/02/02 20:16:47;;;;;;;4.22;0.82;;;3.20;99.90;;;;;;4885706;29;20033;-79
2022/02/02 20:19:14;;;;;;;5.45;0.70;;;3.10;99.90;;;;;;4885631;29;20037;-80
2022/02/02 20:27:31;;;;;;;14.55;3.15;;;2.90;99.90;;;;;;5776870;23;20052;-79
2022/02/02 20:29:57;;;;;;;3.95;1.10;;;2.90;99.90;;;;;;4927821;29;20021;-79
2022/02/02 20:32:23;;;;;;;9.02;2.08;;;3.00;99.90;;;;;;4944011;29;20017;-79
2022/02/02 20:34:48;;;;;;;;;;;2.90;99.90;;;;;;4944290;29;20032;-79
2022/02/02 20:37:15;;;;;;;4.90;0.80;;;2.80;99.90;;;;;;4940750;29;19907;-80
2022/02/02 20:39:49;;;;;;;3.95;0.80;;;2.80;99.90;;;;;;4943898;29;20024;-80
2022/02/02 20:42:19;;;;;;;4.20;0.70;;;2.80;99.90;;;;;;4927472;29;20019;-79
2022/02/02 20:45:08;;;;;;;7.65;1.27;;;3.00;99.90;;;;;;4943585;29;20021;-80
2022/02/02 21:04:17;;;;;;;5.85;2.05;;;3.40;99.90;;;;;;4934334;29;20032;-80
2022/02/02 21:07:03;;;;;;;5.50;1.52;;;3.50;99.90;;;;;;4933190;29;20020;-79
2022/02/02 21:09:43;;;;;;;9.10;2.35;;;3.60;99.90;;;;;;4940219;29;20032;-80
2022/02/02 21:14:46;;;;;;;6.43;1.65;;;3.70;99.90;;;;;;4941350;29;20035;-80
2022/02/02 21:17:26;;;;;;;7.30;2.63;;;3.80;99.90;;;;;;4926584;29;20008;-78
2022/02/02 21:19:58;;;;;;;10.02;3.03;;;3.80;99.90;;;;;;4943092;29;20024;-78
2022/02/02 21:22:26;;;;;;;6.50;2.30;;;3.70;99.90;;;;;;4942680;29;20088;-79
2022/02/02 21:25:29;;;;;;;15.55;4.68;;;3.70;99.90;;;;;;4925871;29;20008;-78
2022/02/02 21:27:56;;;;;;;3.92;1.02;;;3.60;99.90;;;;;;4940775;29;20032;-80
2022/02/02 21:30:24;;;;;;;3.33;0.80;;;3.70;99.90;;;;;;4941936;29;20043;-79
2022/02/02 21:32:50;;;;;;;5.15;1.40;;;3.80;99.90;;;;;;4926137;29;20024;-79
2022/02/02 21:35:17;;;;;;;7.43;2.60;;;3.90;99.90;;;;;;4939596;29;20119;-79
2022/02/02 21:37:48;;;;;;;4.78;2.22;;;3.90;99.90;;;;;;4926013;29;20035;-79
2022/02/02 21:40:21;;;;;;;5.45;2.15;;;3.90;99.90;;;;;;4935518;29;20036;-79
2022/02/02 21:42:49;;;;;;;7.70;2.13;;;3.80;99.90;;;;;;4942193;29;20036;-80
2022/02/02 21:45:17;;;;;;;5.97;2.13;;;3.80;99.90;;;;;;4941246;29;20039;-80
2022/02/02 21:47:42;;;;;;;5.25;1.80;;;3.80;99.90;;;;;;4924640;29;20008;-80
2022/02/02 21:50:14;;;;;;;;;;;3.80;99.90;;;;;;4942748;29;20048;-79
2022/02/02 21:52:41;;;;;;;3.70;1.23;;;3.70;99.90;;;;;;4942742;29;19927;-81
2022/02/02 21:55:07;;;;;;;7.20;1.05;;;3.80;99.90;;;;;;4942693;29;20034;-80
2022/02/02 21:57:33;;;;;;;4.70;1.35;;;3.80;99.90;;;;;;4926336;29;20023;-80
2022/02/02 21:59:59;;;;;;;;;;;3.80;99.90;;;;;;4926785;29;20076;-80
2022/02/02 22:02:26;;;;;;;10.07;3.05;;;3.80;99.90;;;;;;4926369;29;19895;-80
2022/02/02 22:04:52;;;;;;;6.82;2.28;;;3.80;99.90;;;;;;4942099;29;20016;-81
2022/02/02 22:07:18;;;;;;;;;;;3.80;99.90;;;;;;4942661;29;20031;-80
2022/02/02 22:09:49;;;;;;;6.28;1.17;;;3.70;99.90;;;;;;4942345;29;19936;-80
2022/02/02 22:12:15;;;;;;;5.90;1.65;;;3.70;99.90;;;;;;4926020;29;20016;-80
2022/02/02 22:14:46;;;;;;;;;;;3.70;99.90;;;;;;4941823;29;20016;-80
2022/02/02 22:17:12;;;;;;;4.68;1.55;;;3.50;99.90;;;;;;4941714;29;19911;-80
2022/02/02 22:19:38;;;;;;;;;;;3.50;99.90;;;;;;4941868;29;20081;-80
2022/02/02 23:55:04;;;;;;;5.22;1.27;;;2.10;99.90;;;;;;5088040;23;20087;-79
